sensor_id;sensor_type;location;lat;lon;timestamp;pressure;altitude;pressure_sealevel;temperature;humidity
5298;BME280;14738;42.668;23.250;2023-05-29T00:00:03;48437.94;;;-141.90;100.00
5298;BME280;14738;42.668;23.250;2023-05-29T00:02:34;48469.72;;;-141.90;100.00
5298;BME280;14738;42.668;23.250;2023-05-29T00:05:00;48437.94;;;-141.90;100.00
5298;BME280;14738;42.668;23.250;2023-05-29T00:07:29;48449.84;;;-141.90;100.00
5298;BME280;14738;42.668;23.250;2023-05-29T00:09:57;48435.97;;;-141.90;100.00
5298;BME280;14738;42.668;23.250;2023-05-29T00:12:22;48457.81;;;-141.90;100.00
5298;BME280;14738;42.668;23.250;2023-05-29T00:14:48;48445.88;;;-141.90;100.00
5298;BME280;14738;42.668;23.250;2023-05-29T00:17:14;48477.66;;;-141.90;100.00
5298;BME280;14738;42.668;23.250;2023-05-29T00:19:43;48465.75;;;-141.90;100.00
5298;BME280;14738;42.668;23.250;2023-05-29T00:22:09;48430.00;;;-141.90;100.00
5298;BME280;14738;42.668;23.250;2023-05-29T00:24:37;48432.00;;;-141.90;100.00
5298;BME280;14738;42.668;23.250;2023-05-29T00:27:02;48433.97;;;-141.90;100.00
5298;BME280;14738;42.668;23.250;2023-05-29T00:29:28;48453.81;;;-141.90;100.00
5298;BME280;14738;42.668;23.250;2023-05-29T00:31:54;48453.81;;;-141.90;100.00
5298;BME280;14738;42.668;23.250;2023-05-29T00:34:22;48453.81;;;-141.90;100.00
5298;BME280;14738;42.668;23.250;2023-05-29T00:36:48;48457.81;;;-141.90;100.00
5298;BME280;14738;42.668;23.250;2023-05-29T00:39:14;48465.75;;;-141.90;100.00
5298;BME280;14738;42.668;23.250;2023-05-29T00:41:39;48445.88;;;-141.90;100.00
5298;BME280;14738;42.668;23.250;2023-05-29T00:44:05;48451.84;;;-141.90;100.00
5298;BME280;14738;42.668;23.250;2023-05-29T00:46:31;48463.75;;;-141.90;100.00
5298;BME280;14738;42.668;23.250;2023-05-29T00:49:01;48485.59;;;-141.90;100.00
5298;BME280;14738;42.668;23.250;2023-05-29T00:51:27;48453.81;;;-141.90;100.00
5298;BME280;14738;42.668;23.250;2023-05-29T00:53:54;48449.84;;;-141.90;100.00
5298;BME280;14738;42.668;23.250;2023-05-29T00:56:21;48439.94;;;-141.90;100.00
5298;BME280;14738;42.668;23.250;2023-05-29T00:58:51;48461.78;;;-141.90;100.00
5298;BME280;14738;42.668;23.250;2023-05-29T01:01:18;48453.81;;;-141.90;100.00
5298;BME280;14738;42.668;23.250;2023-05-29T01:03:44;48453.81;;;-141.90;100.00
5298;BME280;14738;42.668;23.250;2023-05-29T01:06:10;48461.78;;;-141.90;100.00
5298;BME280;14738;42.668;23.250;2023-05-29T01:08:36;48433.97;;;-141.90;100.00
5298;BME280;14738;42.668;23.250;2023-05-29T01:11:27;48437.94;;;-141.90;100.00
5298;BME280;14738;42.668;23.250;2023-05-29T01:14:00;48447.88;;;-141.90;100.00
5298;BME280;14738;42.668;23.250;2023-05-29T01:16:49;48432.00;;;-141.90;100.00
5298;BME280;14738;42.668;23.250;2023-05-29T01:19:30;48467.72;;;-141.90;100.00
5298;BME280;14738;42.668;23.250;2023-05-29T01:22:25;48447.88;;;-141.90;100.00
5298;BME280;14738;42.668;23.250;2023-05-29T01:27:46;48437.94;;;-141.90;100.00
5298;BME280;14738;42.668;23.250;2023-05-29T01:30:14;48430.00;;;-141.90;100.00
5298;BME280;14738;42.668;23.250;2023-05-29T01:32:40;48414.13;;;-141.90;100.00
5298;BME280;14738;42.668;23.250;2023-05-29T01:35:06;48410.16;;;-141.90;100.00
5298;BME280;14738;42.668;23.250;2023-05-29T01:37:32;48455.81;;;-141.90;100.00
5298;BME280;14738;42.668;23.250;2023-05-29T01:39:58;48451.84;;;-141.90;100.00
5298;BME280;14738;42.668;23.250;2023-05-29T01:42:26;48457.81;;;-141.90;100.00
5298;BME280;14738;42.668;23.250;2023-05-29T01:44:52;48445.88;;;-141.90;100.00
5298;BME280;14738;42.668;23.250;2023-05-29T01:47:18;48414.13;;;-141.90;100.00
5298;BME280;14738;42.668;23.250;2023-05-29T01:49:44;48463.75;;;-141.90;100.00
5298;BME280;14738;42.668;23.250;2023-05-29T01:52:10;48441.91;;;-141.90;100.00
5298;BME280;14738;42.668;23.250;2023-05-29T01:54:36;48426.03;;;-141.90;100.00
5298;BME280;14738;42.668;23.250;2023-05-29T01:57:02;48445.88;;;-141.90;100.00
5298;BME280;14738;42.668;23.250;2023-05-29T01:59:32;48418.09;;;-141.90;100.00
5298;BME280;14738;42.668;23.250;2023-05-29T02:02:05;48469.72;;;-141.90;100.00
5298;BME280;14738;42.668;23.250;2023-05-29T02:04:31;48441.91;;;-141.90;100.00
5298;BME280;14738;42.668;23.250;2023-05-29T02:06:56;48475.66;;;-141.90;100.00
5298;BME280;14738;42.668;23.250;2023-05-29T02:09:22;48433.97;;;-141.90;100.00
5298;BME280;14738;42.668;23.250;2023-05-29T02:11:47;48445.88;;;-141.90;100.00
5298;BME280;14738;42.668;23.250;2023-05-29T02:14:13;48449.84;;;-141.90;100.00
5298;BME280;14738;42.668;23.250;2023-05-29T02:16:39;48469.72;;;-141.90;100.00
5298;BME280;14738;42.668;23.250;2023-05-29T02:19:06;48459.78;;;-141.90;100.00
5298;BME280;14738;42.668;23.250;2023-05-29T02:21:31;48459.78;;;-141.90;100.00
5298;BME280;14738;42.668;23.250;2023-05-29T02:23:57;48437.94;;;-141.90;100.00
5298;BME280;14738;42.668;23.250;2023-05-29T02:26:22;48443.91;;;-141.90;100.00
5298;BME280;14738;42.668;23.250;2023-05-29T02:28:48;48463.75;;;-141.90;100.00
5298;BME280;14738;42.668;23.250;2023-05-29T02:31:13;48453.81;;;-141.90;100.00
5298;BME280;14738;42.668;23.250;2023-05-29T02:33:39;48443.91;;;-141.90;100.00
5298;BME280;14738;42.668;23.250;2023-05-29T02:36:05;48465.75;;;-141.90;100.00
5298;BME280;14738;42.668;23.250;2023-05-29T02:38:35;48457.81;;;-141.90;100.00
5298;BME280;14738;42.668;23.250;2023-05-29T02:41:01;48449.84;;;-141.90;100.00
5298;BME280;14738;42.668;23.250;2023-05-29T02:43:26;48465.75;;;-141.90;100.00
5298;BME280;14738;42.668;23.250;2023-05-29T02:45:52;48433.97;;;-141.90;100.00
5298;BME280;14738;42.668;23.250;2023-05-29T02:48:17;48451.84;;;-141.90;100.00
5298;BME280;14738;42.668;23.250;2023-05-29T02:50:43;48469.72;;;-141.90;100.00
5298;BME280;14738;42.668;23.250;2023-05-29T02:53:08;48447.88;;;-141.90;100.00
5298;BME280;14738;42.668;23.250;2023-05-29T02:55:33;48457.81;;;-141.90;100.00
5298;BME280;14738;42.668;23.250;2023-05-29T02:58:01;48489.56;;;-141.90;100.00
5298;BME280;14738;42.668;23.250;2023-05-29T03:00:26;48447.88;;;-141.90;100.00
5298;BME280;14738;42.668;23.250;2023-05-29T03:02:54;48465.75;;;-141.90;100.00
5298;BME280;14738;42.668;23.250;2023-05-29T03:05:20;48485.59;;;-141.90;100.00
5298;BME280;14738;42.668;23.250;2023-05-29T03:07:45;48422.06;;;-141.90;100.00
5298;BME280;14738;42.668;23.250;2023-05-29T03:10:11;48430.00;;;-141.90;100.00
5298;BME280;14738;42.668;23.250;2023-05-29T03:12:37;48459.78;;;-141.90;100.00
5298;BME280;14738;42.668;23.250;2023-05-29T03:15:03;48447.88;;;-141.90;100.00
5298;BME280;14738;42.668;23.250;2023-05-29T03:17:29;48469.72;;;-141.90;100.00
5298;BME280;14738;42.668;23.250;2023-05-29T03:19:56;48469.72;;;-141.90;100.00
5298;BME280;14738;42.668;23.250;2023-05-29T03:22:22;48457.81;;;-141.90;100.00
5298;BME280;14738;42.668;23.250;2023-05-29T03:24:48;48469.72;;;-141.90;100.00
5298;BME280;14738;42.668;23.250;2023-05-29T03:27:13;48447.88;;;-141.90;100.00
5298;BME280;14738;42.668;23.250;2023-05-29T03:29:39;48430.00;;;-141.90;100.00
5298;BME280;14738;42.668;23.250;2023-05-29T03:32:04;48469.72;;;-141.90;100.00
5298;BME280;14738;42.668;23.250;2023-05-29T03:34:30;48439.94;;;-141.90;100.00
5298;BME280;14738;42.668;23.250;2023-05-29T03:36:56;48426.03;;;-141.90;100.00
5298;BME280;14738;42.668;23.250;2023-05-29T03:39:22;48459.78;;;-141.90;100.00
5298;BME280;14738;42.668;23.250;2023-05-29T03:41:47;48465.75;;;-141.90;100.00
5298;BME280;14738;42.668;23.250;2023-05-29T03:44:13;48459.78;;;-141.90;100.00
5298;BME280;14738;42.668;23.250;2023-05-29T03:46:38;48455.81;;;-141.90;100.00
5298;BME280;14738;42.668;23.250;2023-05-29T03:49:03;48457.81;;;-141.90;100.00
5298;BME280;14738;42.668;23.250;2023-05-29T03:51:29;48441.91;;;-141.90;100.00
5298;BME280;14738;42.668;23.250;2023-05-29T03:53:56;48443.91;;;-141.90;100.00
5298;BME280;14738;42.668;23.250;2023-05-29T03:56:21;48481.63;;;-141.90;100.00
5298;BME280;14738;42.668;23.250;2023-05-29T03:58:46;48453.81;;;-141.90;100.00
5298;BME280;14738;42.668;23.250;2023-05-29T04:01:12;48447.88;;;-141.90;100.00
5298;BME280;14738;42.668;23.250;2023-05-29T04:03:37;48479.63;;;-141.90;100.00
5298;BME280;14738;42.668;23.250;2023-05-29T04:06:03;48457.81;;;-141.90;100.00
5298;BME280;14738;42.668;23.250;2023-05-29T04:08:28;48483.59;;;-141.90;100.00
5298;BME280;14738;42.668;23.250;2023-05-29T04:10:54;48461.78;;;-141.90;100.00
5298;BME280;14738;42.668;23.250;2023-05-29T04:13:20;48461.78;;;-141.90;100.00
5298;BME280;14738;42.668;23.250;2023-05-29T04:15:46;48475.66;;;-141.90;100.00
5298;BME280;14738;42.668;23.250;2023-05-29T04:18:11;48461.78;;;-141.90;100.00
5298;BME280;14738;42.668;23.250;2023-05-29T04:21:01;48437.94;;;-141.90;100.00
5298;BME280;14738;42.668;23.250;2023-05-29T04:23:27;48467.72;;;-141.90;100.00
5298;BME280;14738;42.668;23.250;2023-05-29T04:25:52;48465.75;;;-141.90;100.00
5298;BME280;14738;42.668;23.250;2023-05-29T04:28:18;48449.84;;;-141.90;100.00
5298;BME280;14738;42.668;23.250;2023-05-29T04:30:46;48449.84;;;-141.90;100.00
5298;BME280;14738;42.668;23.250;2023-05-29T04:33:12;48437.94;;;-141.90;100.00
5298;BME280;14738;42.668;23.250;2023-05-29T04:35:39;48457.81;;;-141.90;100.00
5298;BME280;14738;42.668;23.250;2023-05-29T04:38:08;48469.72;;;-141.90;100.00
5298;BME280;14738;42.668;23.250;2023-05-29T04:40:34;48495.53;;;-141.90;100.00
5298;BME280;14738;42.668;23.250;2023-05-29T04:43:02;48465.75;;;-141.90;100.00
5298;BME280;14738;42.668;23.250;2023-05-29T04:45:27;48449.84;;;-141.90;100.00
5298;BME280;14738;42.668;23.250;2023-05-29T04:47:53;48487.56;;;-141.90;100.00
5298;BME280;14738;42.668;23.250;2023-05-29T04:50:22;48473.69;;;-141.90;100.00
5298;BME280;14738;42.668;23.250;2023-05-29T04:52:48;48491.56;;;-141.90;100.00
5298;BME280;14738;42.668;23.250;2023-05-29T04:55:13;48441.91;;;-141.90;100.00
5298;BME280;14738;42.668;23.250;2023-05-29T04:57:39;48467.72;;;-141.90;100.00
5298;BME280;14738;42.668;23.250;2023-05-29T05:00:06;48465.75;;;-141.90;100.00
5298;BME280;14738;42.668;23.250;2023-05-29T05:02:40;48499.50;;;-141.90;100.00
5298;BME280;14738;42.668;23.250;2023-05-29T05:05:06;48467.72;;;-141.90;100.00
5298;BME280;14738;42.668;23.250;2023-05-29T05:07:32;48473.69;;;-141.90;100.00
5298;BME280;14738;42.668;23.250;2023-05-29T05:09:57;48501.47;;;-141.90;100.00
5298;BME280;14738;42.668;23.250;2023-05-29T05:12:22;48477.66;;;-141.90;100.00
5298;BME280;14738;42.668;23.250;2023-05-29T05:14:48;48443.91;;;-141.90;100.00
5298;BME280;14738;42.668;23.250;2023-05-29T05:17:13;48457.81;;;-141.90;100.00
5298;BME280;14738;42.668;23.250;2023-05-29T05:19:39;48469.72;;;-141.90;100.00
5298;BME280;14738;42.668;23.250;2023-05-29T05:22:04;48475.66;;;-141.90;100.00
5298;BME280;14738;42.668;23.250;2023-05-29T05:24:29;48467.72;;;-141.90;100.00
5298;BME280;14738;42.668;23.250;2023-05-29T05:26:57;48461.78;;;-141.90;100.00
5298;BME280;14738;42.668;23.250;2023-05-29T05:29:22;48481.63;;;-141.90;100.00
5298;BME280;14738;42.668;23.250;2023-05-29T05:31:48;48481.63;;;-141.90;100.00
5298;BME280;14738;42.668;23.250;2023-05-29T05:34:13;48501.47;;;-141.90;100.00
5298;BME280;14738;42.668;23.250;2023-05-29T05:36:38;48499.50;;;-141.90;100.00
5298;BME280;14738;42.668;23.250;2023-05-29T05:39:04;48499.50;;;-141.90;100.00
5298;BME280;14738;42.668;23.250;2023-05-29T05:41:30;48501.47;;;-141.90;100.00
5298;BME280;14738;42.668;23.250;2023-05-29T05:43:56;48493.53;;;-141.90;100.00
5298;BME280;14738;42.668;23.250;2023-05-29T05:46:21;48483.59;;;-141.90;100.00
5298;BME280;14738;42.668;23.250;2023-05-29T05:48:47;48501.47;;;-141.90;100.00
5298;BME280;14738;42.668;23.250;2023-05-29T05:51:12;48477.66;;;-141.90;100.00
5298;BME280;14738;42.668;23.250;2023-05-29T05:53:39;48509.41;;;-141.90;100.00
5298;BME280;14738;42.668;23.250;2023-05-29T05:56:04;48535.22;;;-141.90;100.00
5298;BME280;14738;42.668;23.250;2023-05-29T05:58:30;48519.34;;;-141.90;100.00
5298;BME280;14738;42.668;23.250;2023-05-29T06:00:55;48497.50;;;-141.90;100.00
5298;BME280;14738;42.668;23.250;2023-05-29T06:03:22;48509.41;;;-141.90;100.00
5298;BME280;14738;42.668;23.250;2023-05-29T06:05:48;48545.16;;;-141.90;100.00
5298;BME280;14738;42.668;23.250;2023-05-29T06:08:13;48545.16;;;-141.90;100.00
5298;BME280;14738;42.668;23.250;2023-05-29T06:10:41;48553.09;;;-141.90;100.00
5298;BME280;14738;42.668;23.250;2023-05-29T06:13:06;48588.84;;;-141.90;45.37
5298;BME280;14738;42.668;23.250;2023-05-29T06:15:32;48517.34;;;-141.90;45.33
5298;BME280;14738;42.668;23.250;2023-05-29T06:17:58;48592.81;;;-141.90;46.56
5298;BME280;14738;42.668;23.250;2023-05-29T06:20:24;48572.94;;;-141.90;45.62
5298;BME280;14738;42.668;23.250;2023-05-29T06:22:50;48527.28;;;-141.90;46.06
5298;BME280;14738;42.668;23.250;2023-05-29T06:25:19;48568.97;;;-141.90;46.77
5298;BME280;14738;42.668;23.250;2023-05-29T06:27:44;48541.19;;;-141.90;48.41
5298;BME280;14738;42.668;23.250;2023-05-29T06:30:11;48533.25;;;-141.90;48.68
5298;BME280;14738;42.668;23.250;2023-05-29T06:32:36;48517.34;;;-141.90;49.35
5298;BME280;14738;42.668;23.250;2023-05-29T06:35:02;48485.59;;;-141.90;50.45
5298;BME280;14738;42.668;23.250;2023-05-29T06:37:28;48533.25;;;-141.90;51.81
5298;BME280;14738;42.668;23.250;2023-05-29T06:39:53;48513.38;;;-141.90;51.71
5298;BME280;14738;42.668;23.250;2023-05-29T06:42:18;48517.34;;;-141.90;51.50
5298;BME280;14738;42.668;23.250;2023-05-29T06:44:44;48529.28;;;-141.90;49.58
5298;BME280;14738;42.668;23.250;2023-05-29T06:47:09;48507.44;;;-141.90;51.13
5298;BME280;14738;42.668;23.250;2023-05-29T06:49:35;48527.28;;;-141.90;50.29
5298;BME280;14738;42.668;23.250;2023-05-29T06:52:00;48557.06;;;-141.90;48.95
5298;BME280;14738;42.668;23.250;2023-05-29T06:54:25;48547.13;;;-141.90;46.52
5298;BME280;14738;42.668;23.250;2023-05-29T06:56:51;48553.09;;;-141.90;44.83
5298;BME280;14738;42.668;23.250;2023-05-29T06:59:16;48568.97;;;-141.90;45.66
5298;BME280;14738;42.668;23.250;2023-05-29T07:01:42;48555.09;;;-141.90;44.03
5298;BME280;14738;42.668;23.250;2023-05-29T07:04:07;48606.69;;;-141.90;44.99
5298;BME280;14738;42.668;23.250;2023-05-29T07:06:32;48563.03;;;-141.90;44.59
5298;BME280;14738;42.668;23.250;2023-05-29T07:08:59;48557.06;;;-141.90;45.73
5298;BME280;14738;42.668;23.250;2023-05-29T07:11:24;48545.16;;;-141.90;45.31
5298;BME280;14738;42.668;23.250;2023-05-29T07:13:52;48535.22;;;-141.90;46.09
5298;BME280;14738;42.668;23.250;2023-05-29T07:16:18;48553.09;;;-141.90;46.52
5298;BME280;14738;42.668;23.250;2023-05-29T07:18:43;48576.91;;;-141.90;45.40
5298;BME280;14738;42.668;23.250;2023-05-29T07:21:09;48539.19;;;-141.90;44.91
5298;BME280;14738;42.668;23.250;2023-05-29T07:23:35;48592.81;;;-141.90;45.99
5298;BME280;14738;42.668;23.250;2023-05-29T07:26:01;48565.00;;;-141.90;45.67
5298;BME280;14738;42.668;23.250;2023-05-29T07:28:26;48572.94;;;-141.90;44.27
5298;BME280;14738;42.668;23.250;2023-05-29T07:30:52;48586.84;;;-141.90;44.96
5298;BME280;14738;42.668;23.250;2023-05-29T07:33:17;48592.81;;;-141.90;45.06
5298;BME280;14738;42.668;23.250;2023-05-29T07:35:43;48608.69;;;-141.90;45.50
5298;BME280;14738;42.668;23.250;2023-05-29T07:38:08;48555.09;;;-141.90;44.74
5298;BME280;14738;42.668;23.250;2023-05-29T07:40:36;48553.09;;;-141.90;44.94
5298;BME280;14738;42.668;23.250;2023-05-29T07:43:02;48539.19;;;-141.90;43.38
5298;BME280;14738;42.668;23.250;2023-05-29T07:45:27;48616.63;;;-141.90;42.77
5298;BME280;14738;42.668;23.250;2023-05-29T07:47:53;48620.59;;;-141.90;41.49
5298;BME280;14738;42.668;23.250;2023-05-29T07:50:19;48614.63;;;-141.90;40.42
5298;BME280;14738;42.668;23.250;2023-05-29T07:52:45;48624.56;;;-141.90;40.46
5298;BME280;14738;42.668;23.250;2023-05-29T07:55:10;48572.94;;;-141.90;40.96
5298;BME280;14738;42.668;23.250;2023-05-29T07:57:36;48602.72;;;-141.90;41.07
5298;BME280;14738;42.668;23.250;2023-05-29T08:00:02;48598.75;;;-141.90;41.84
5298;BME280;14738;42.668;23.250;2023-05-29T08:02:34;48612.66;;;-141.90;41.61
5298;BME280;14738;42.668;23.250;2023-05-29T08:05:00;48640.44;;;-141.90;40.99
5298;BME280;14738;42.668;23.250;2023-05-29T08:07:25;48580.88;;;-141.90;40.07
5298;BME280;14738;42.668;23.250;2023-05-29T08:09:55;48668.25;;;-141.90;40.22
5298;BME280;14738;42.668;23.250;2023-05-29T08:12:20;48646.41;;;-141.90;38.54
5298;BME280;14738;42.668;23.250;2023-05-29T08:14:46;48640.44;;;-141.90;38.09
5298;BME280;14738;42.668;23.250;2023-05-29T08:17:11;48568.97;;;-141.90;39.83
5298;BME280;14738;42.668;23.250;2023-05-29T08:19:36;48582.88;;;-141.90;40.04
5298;BME280;14738;42.668;23.250;2023-05-29T08:22:02;48598.75;;;-141.90;41.00
5298;BME280;14738;42.668;23.250;2023-05-29T08:24:27;48567.00;;;-141.90;41.35
5298;BME280;14738;42.668;23.250;2023-05-29T08:26:53;48600.75;;;-141.90;40.69
5298;BME280;14738;42.668;23.250;2023-05-29T08:29:19;48606.69;;;-141.90;40.78
5298;BME280;14738;42.668;23.250;2023-05-29T08:31:44;48551.09;;;-141.90;41.61
5298;BME280;14738;42.668;23.250;2023-05-29T08:34:10;48479.63;;;-141.90;43.67
5298;BME280;14738;42.668;23.250;2023-05-29T08:36:35;48584.84;;;-141.90;42.97
5298;BME280;14738;42.668;23.250;2023-05-29T08:39:01;48561.03;;;-141.90;42.62
5298;BME280;14738;42.668;23.250;2023-05-29T08:41:50;48519.34;;;-141.90;42.02
5298;BME280;14738;42.668;23.250;2023-05-29T08:44:22;48572.94;;;-141.90;42.21
5298;BME280;14738;42.668;23.250;2023-05-29T08:46:54;48565.00;;;-141.90;41.91
5298;BME280;14738;42.668;23.250;2023-05-29T08:49:21;48567.00;;;-141.90;41.89
5298;BME280;14738;42.668;23.250;2023-05-29T08:51:59;48584.84;;;-141.90;41.71
5298;BME280;14738;42.668;23.250;2023-05-29T08:54:30;48592.81;;;-141.90;41.59
5298;BME280;14738;42.668;23.250;2023-05-29T08:56:56;48576.91;;;-141.90;41.36
5298;BME280;14738;42.668;23.250;2023-05-29T08:59:23;48596.78;;;-141.90;41.57
5298;BME280;14738;42.668;23.250;2023-05-29T09:01:50;48557.06;;;-141.90;42.81
5298;BME280;14738;42.668;23.250;2023-05-29T09:04:16;48559.06;;;-141.90;42.04
5298;BME280;14738;42.668;23.250;2023-05-29T09:06:42;48586.84;;;-141.90;41.09
5298;BME280;14738;42.668;23.250;2023-05-29T09:09:08;48606.69;;;-141.90;40.43
5298;BME280;14738;42.668;23.250;2023-05-29T09:11:35;48588.84;;;-141.90;40.89
5298;BME280;14738;42.668;23.250;2023-05-29T09:14:00;48572.94;;;-141.90;39.92
5298;BME280;14738;42.668;23.250;2023-05-29T09:16:27;48600.75;;;-141.90;39.22
5298;BME280;14738;42.668;23.250;2023-05-29T09:19:04;48644.41;;;-141.90;39.12
5298;BME280;14738;42.668;23.250;2023-05-29T09:21:30;48652.38;;;-141.90;39.14
5298;BME280;14738;42.668;23.250;2023-05-29T09:24:03;48620.59;;;-141.90;36.60
5298;BME280;14738;42.668;23.250;2023-05-29T09:26:29;48654.34;;;-141.90;38.01
5298;BME280;14738;42.668;23.250;2023-05-29T09:28:55;48644.41;;;-141.90;37.88
5298;BME280;14738;42.668;23.250;2023-05-29T09:31:21;48608.69;;;-141.90;38.43
5298;BME280;14738;42.668;23.250;2023-05-29T09:33:50;48616.63;;;-141.90;35.34
5298;BME280;14738;42.668;23.250;2023-05-29T09:36:24;48608.69;;;-141.90;36.13
5298;BME280;14738;42.668;23.250;2023-05-29T09:38:50;48598.75;;;-141.90;34.68
5298;BME280;14738;42.668;23.250;2023-05-29T09:41:23;48576.91;;;-141.90;36.59
5298;BME280;14738;42.668;23.250;2023-05-29T09:43:50;48567.00;;;-141.90;37.28
5298;BME280;14738;42.668;23.250;2023-05-29T09:46:17;48572.94;;;-141.90;38.10
5298;BME280;14738;42.668;23.250;2023-05-29T09:48:45;48565.00;;;-141.90;37.74
5298;BME280;14738;42.668;23.250;2023-05-29T09:51:23;48598.75;;;-141.90;38.66
5298;BME280;14738;42.668;23.250;2023-05-29T09:53:49;48565.00;;;-141.90;37.76
5298;BME280;14738;42.668;23.250;2023-05-29T09:56:19;48568.97;;;-141.90;38.28
5298;BME280;14738;42.668;23.250;2023-05-29T09:58:49;48580.88;;;-141.90;37.68
5298;BME280;14738;42.668;23.250;2023-05-29T10:01:14;48588.84;;;-141.90;37.95
5298;BME280;14738;42.668;23.250;2023-05-29T10:03:41;48620.59;;;-141.90;35.98
5298;BME280;14738;42.668;23.250;2023-05-29T10:06:10;48628.53;;;-141.90;35.50
5298;BME280;14738;42.668;23.250;2023-05-29T10:08:46;48642.44;;;-141.90;36.48
5298;BME280;14738;42.668;23.250;2023-05-29T10:11:17;48672.22;;;-141.90;34.60
5298;BME280;14738;42.668;23.250;2023-05-29T10:13:51;48707.94;;;-141.90;34.10
5298;BME280;14738;42.668;23.250;2023-05-29T10:16:20;48702.00;;;-141.90;32.36
5298;BME280;14738;42.668;23.250;2023-05-29T10:18:53;48672.22;;;-141.90;34.19
5298;BME280;14738;42.668;23.250;2023-05-29T10:21:25;48596.78;;;-141.90;35.49
5298;BME280;14738;42.668;23.250;2023-05-29T10:23:52;48604.72;;;-141.90;35.30
5298;BME280;14738;42.668;23.250;2023-05-29T10:26:21;48596.78;;;-141.90;34.87
5298;BME280;14738;42.668;23.250;2023-05-29T10:29:17;48636.47;;;-141.90;34.41
5298;BME280;14738;42.668;23.250;2023-05-29T10:37:50;48644.41;;;-141.90;34.89
5298;BME280;14738;42.668;23.250;2023-05-29T10:40:24;48634.50;;;-141.90;34.95
5298;BME280;14738;42.668;23.250;2023-05-29T10:42:51;48582.88;;;-141.90;34.89
5298;BME280;14738;42.668;23.250;2023-05-29T10:50:40;48628.53;;;-141.90;35.14
5298;BME280;14738;42.668;23.250;2023-05-29T10:53:09;48574.94;;;-141.90;36.37
5298;BME280;14738;42.668;23.250;2023-05-29T10:55:40;48620.59;;;-141.90;34.85
5298;BME280;14738;42.668;23.250;2023-05-29T10:58:12;48596.78;;;-141.90;35.22
5298;BME280;14738;42.668;23.250;2023-05-29T11:00:42;48592.81;;;-141.90;35.00
5298;BME280;14738;42.668;23.250;2023-05-29T11:03:08;48588.84;;;-141.90;34.21
5298;BME280;14738;42.668;23.250;2023-05-29T11:05:34;48624.56;;;-141.90;34.28
5298;BME280;14738;42.668;23.250;2023-05-29T11:08:01;48578.91;;;-141.90;34.34
5298;BME280;14738;42.668;23.250;2023-05-29T11:13:35;48561.03;;;-141.90;35.58
5298;BME280;14738;42.668;23.250;2023-05-29T11:16:10;48580.88;;;-141.90;36.38
5298;BME280;14738;42.668;23.250;2023-05-29T11:18:44;48559.06;;;-141.90;35.64
5298;BME280;14738;42.668;23.250;2023-05-29T11:24:02;48588.84;;;-141.90;34.96
5298;BME280;14738;42.668;23.250;2023-05-29T11:26:29;48584.84;;;-141.90;36.34
5298;BME280;14738;42.668;23.250;2023-05-29T11:29:07;48580.88;;;-141.90;36.90
5298;BME280;14738;42.668;23.250;2023-05-29T11:31:37;48604.72;;;-141.90;38.14
5298;BME280;14738;42.668;23.250;2023-05-29T11:34:03;48632.50;;;-141.90;38.10
5298;BME280;14738;42.668;23.250;2023-05-29T11:36:34;48588.84;;;-141.90;37.99
5298;BME280;14738;42.668;23.250;2023-05-29T11:39:00;48660.31;;;-141.90;36.30
5298;BME280;14738;42.668;23.250;2023-05-29T11:41:27;48640.44;;;-141.90;36.25
5298;BME280;14738;42.668;23.250;2023-05-29T11:44:00;48652.38;;;-141.90;35.38
5298;BME280;14738;42.668;23.250;2023-05-29T11:46:30;48570.97;;;-141.90;35.55
5298;BME280;14738;42.668;23.250;2023-05-29T11:48:58;48610.66;;;-141.90;35.87
5298;BME280;14738;42.668;23.250;2023-05-29T11:51:24;48664.28;;;-141.90;35.91
5298;BME280;14738;42.668;23.250;2023-05-29T11:53:50;48680.16;;;-141.90;34.18
5298;BME280;14738;42.668;23.250;2023-05-29T11:56:18;48656.34;;;-141.90;34.75
5298;BME280;14738;42.668;23.250;2023-05-29T11:58:45;48656.34;;;-141.90;34.28
5298;BME280;14738;42.668;23.250;2023-05-29T12:01:11;48713.91;;;-141.90;33.21
5298;BME280;14738;42.668;23.250;2023-05-29T12:03:40;48684.13;;;-141.90;32.29
5298;BME280;14738;42.668;23.250;2023-05-29T12:06:06;48680.16;;;-141.90;32.99
5298;BME280;14738;42.668;23.250;2023-05-29T12:08:31;48624.56;;;-141.90;33.35
5298;BME280;14738;42.668;23.250;2023-05-29T12:10:57;48628.53;;;-141.90;36.33
5298;BME280;14738;42.668;23.250;2023-05-29T12:13:23;48549.13;;;-141.90;38.62
5298;BME280;14738;42.668;23.250;2023-05-29T12:15:53;48578.91;;;-141.90;41.44
5298;BME280;14738;42.668;23.250;2023-05-29T12:18:19;48572.94;;;-141.90;42.18
5298;BME280;14738;42.668;23.250;2023-05-29T12:20:45;48513.38;;;-141.90;46.66
5298;BME280;14738;42.668;23.250;2023-05-29T12:23:11;48493.53;;;-141.90;51.39
5298;BME280;14738;42.668;23.250;2023-05-29T12:25:39;48515.38;;;-141.90;53.32
5298;BME280;14738;42.668;23.250;2023-05-29T12:28:05;48481.63;;;-141.90;55.65
5298;BME280;14738;42.668;23.250;2023-05-29T12:30:30;48433.97;;;-141.90;56.12
5298;BME280;14738;42.668;23.250;2023-05-29T12:32:56;48402.22;;;-141.90;61.93
5298;BME280;14738;42.668;23.250;2023-05-29T12:35:23;48471.69;;;-141.90;85.37
5298;BME280;14738;42.668;23.250;2023-05-29T12:38:02;48469.72;;;-141.90;94.03
5298;BME280;14738;42.668;23.250;2023-05-29T12:40:31;48473.69;;;-141.90;71.20
5298;BME280;14738;42.668;23.250;2023-05-29T12:43:00;48489.56;;;-141.90;89.46
5298;BME280;14738;42.668;23.250;2023-05-29T12:45:27;48485.59;;;-141.90;90.89
5298;BME280;14738;42.668;23.250;2023-05-29T12:47:57;48473.69;;;-141.90;100.00
5298;BME280;14738;42.668;23.250;2023-05-29T12:50:24;48487.56;;;-141.90;100.00
5298;BME280;14738;42.668;23.250;2023-05-29T12:52:57;48477.66;;;-141.90;100.00
5298;BME280;14738;42.668;23.250;2023-05-29T12:55:24;48481.63;;;-141.90;100.00